LTAILTBS

Guest
Details From LTAI - Antalya
To LTBS - DALAMAN
Flight Number -
Tags generated
Created
Modified
Stats Distance 97 nm / 180 km
Max Altitude 12,500 ft / 3,810 m
Waypoints 3
Social Downloads 1
Likes 0
Share VATSIM

Download

Looking for another format? Having issues loading an existing format? Contact us
Advertisement - Login to hide

Notes

Basic altitude profile: - Ascent Rate: 2500ft/min - Ascent Speed: 250kts - Cruise Altitude: 15000ft - Cruise Speed: 420kts - Descent Rate: 1500ft/min - Descent Speed: 250kts Options: - Use NATs: yes - Use PACOTS: yes - Use low airways: yes - Use high airways: yes

Route

LTAI ALPAY LTBS

ID Type Via Altitude (ft/m) Position (lat/lon) Dist (leg/tot) Name
O LTAI APT - 0 / 0 36.89960 / 30.79751 - / 0 nm Antalya
ALPAY FIX - 12,500 / 3,810 36.83222 / 29.99944 38 / 38 nm
O LTBS APT - 0 / 0 36.71319 / 28.79251 58 / 97 nm DALAMAN

Altitude Profile

Advertisement - Login to hide

LTAI

Details ICAO LTAI (AYT)
Name Antalya International Airport
Region Turkey
Timezone Europe/Istanbul (UTC+3.0)
Stats Elevation 176 ft / 54 m (AMSL)
Location 36.899600° 30.797500°
Runways 3
Magnetic Variation 5.134° E

METAR

LTAI 191850Z VRB02KT CAVOK 28/24 Q1005 NOSIG RMK RWY18C 20004KT 130V220 RWY36R 16004KT RWY18L 16003KT

Decode

TAF

Not found

Departure Runways

ID Width Length Bearing (true/mag) Surface Threshold Overrun Markings Lighting
18C 148 ft / 45 m 11,197 ft / 3,413 m 186.25° / 181.12° CONCRETE 0 ft / 0 m 0 ft / 0 m APP CENTERLINE EDGE THRESHOLD MALSF
18L 148 ft / 45 m 11,189 ft / 3,411 m 186.28° / 181.15° CONCRETE 0 ft / 0 m 0 ft / 0 m APP CENTERLINE EDGE THRESHOLD MALSF
18R 148 ft / 45 m 9,849 ft / 3,002 m 186.25° / 181.12° ASPHALT 0 ft / 0 m 492 ft / 150 m APP CENTERLINE EDGE THRESHOLD MALSF
36C 148 ft / 45 m 11,197 ft / 3,413 m 6.24° / 1.11° CONCRETE 0 ft / 0 m 0 ft / 0 m APP CENTERLINE EDGE THRESHOLD MALSF
36L 148 ft / 45 m 9,849 ft / 3,002 m 6.25° / 1.12° ASPHALT 0 ft / 0 m 489 ft / 149 m APP CENTERLINE EDGE THRESHOLD MALSF
36R 148 ft / 45 m 11,189 ft / 3,411 m 6.28° / 1.15° CONCRETE 0 ft / 0 m 0 ft / 0 m APP CENTERLINE EDGE THRESHOLD MALSF

LTBS

Details ICAO LTBS (DLM)
Name DALAMAN
Region Turkey
Timezone Europe/Istanbul (UTC+3.0)
Stats Elevation 20 ft / 6 m (AMSL)
Location 36.713200° 28.792500°
Runways 1
Magnetic Variation 4.944° E

METAR

LTBS 191850Z 18006KT CAVOK 26/22 Q1005 NOSIG RMK RWY19 16004KT 120V190

Decode

TAF

Not found

Destination Runways

ID Width Length Bearing (true/mag) Surface Threshold Overrun Markings Lighting
01 148 ft / 45 m 9,851 ft / 3,003 m 15.24° / 10.30° CONCRETE 0 ft / 0 m 197 ft / 60 m APP EDGE THRESHOLD ALSF-I
19 148 ft / 45 m 9,851 ft / 3,003 m 195.25° / 190.31° CONCRETE 0 ft / 0 m 197 ft / 60 m APP EDGE THRESHOLD ALSF-I

Popular Alternatives